Time;durP1;ratioP1;P1;durP2;ratioP2;P2;SDS_P1;SDS_P2;PMS_P1;PMS_P2;Temp;Humidity;BMP_temperature;BMP_pressure;BME280_temperature;BME280_humidity;BME280_pressure;Samples;Min_cycle;Max_cycle;Signal;HPM_P1;HPM_P2
2022/06/27 00:01:18;;;;;;;5.93;2.20;;;21.00;99.90;;;;;;4992015;28;20636;-65
2022/06/27 00:03:43;;;;;;;2.73;2.17;;;21.00;99.90;;;;;;4999348;28;20193;-66
2022/06/27 00:06:09;;;;;;;7.30;2.40;;;21.00;99.90;;;;;;4980547;28;20211;-65
2022/06/27 00:08:35;;;;;;;2.60;2.07;;;21.00;99.90;;;;;;4995333;28;20193;-65
2022/06/27 00:11:02;;;;;;;2.90;2.17;;;21.00;99.90;;;;;;4996921;28;20755;-66
2022/06/27 00:13:28;;;;;;;3.33;1.90;;;21.00;99.90;;;;;;4996618;28;20472;-67
2022/06/27 00:15:53;;;;;;;5.47;2.20;;;21.10;99.90;;;;;;4994729;28;20445;-66
2022/06/27 00:18:19;;;;;;;3.70;2.30;;;21.10;99.90;;;;;;4992563;28;20272;-67
2022/06/27 00:20:44;;;;;;;3.57;2.00;;;21.10;99.90;;;;;;4996473;28;20213;-66
2022/06/27 00:23:10;;;;;;;2.40;1.90;;;20.90;99.90;;;;;;4995223;28;20220;-66
2022/06/27 00:25:36;;;;;;;3.47;2.10;;;20.80;99.90;;;;;;4997332;28;20189;-66
2022/06/27 00:28:01;;;;;;;3.53;2.30;;;20.90;99.90;;;;;;4994440;28;20236;-66
2022/06/27 00:30:27;;;;;;;2.50;1.93;;;20.90;99.90;;;;;;4995726;28;20198;-66
2022/06/27 00:32:52;;;;;;;4.27;2.40;;;20.90;99.90;;;;;;4996288;28;20185;-66
2022/06/27 00:35:18;;;;;;;4.30;2.20;;;20.90;99.90;;;;;;4979334;28;20213;-65
2022/06/27 00:37:44;;;;;;;3.10;2.00;;;21.00;99.90;;;;;;4993731;28;20264;-66
2022/06/27 00:40:10;;;;;;;3.77;2.30;;;21.00;99.90;;;;;;4981455;28;20678;-66
2022/06/27 00:42:35;;;;;;;3.00;2.33;;;21.00;99.90;;;;;;4997526;28;20216;-66
2022/06/27 00:45:01;;;;;;;3.83;2.00;;;20.90;99.90;;;;;;4997137;28;20701;-66
2022/06/27 00:47:27;;;;;;;3.57;2.40;;;21.00;99.90;;;;;;4982028;28;20710;-65
2022/06/27 00:49:53;;;;;;;4.97;2.57;;;21.10;99.90;;;;;;4994430;28;20529;-65
2022/06/27 00:52:19;;;;;;;4.00;2.13;;;21.30;99.90;;;;;;4997639;28;20440;-66
2022/06/27 00:54:47;;;;;;;5.33;2.00;;;21.50;99.90;;;;;;4986024;28;20263;-65
2022/06/27 00:57:14;;;;;;;2.00;1.43;;;21.50;99.90;;;;;;4997421;28;20185;-64
2022/06/27 00:59:41;;;;;;;3.10;1.60;;;21.60;99.90;;;;;;4983421;28;21767;-67
2022/06/27 01:02:07;;;;;;;2.70;1.30;;;21.60;99.90;;;;;;5000500;28;20442;-64
2022/06/27 01:04:35;;;;;;;3.00;1.60;;;21.70;99.90;;;;;;4998268;28;20511;-67
2022/06/27 01:07:01;;;;;;;2.30;1.50;;;21.70;99.90;;;;;;4998124;28;20460;-66
2022/06/27 01:09:26;;;;;;;3.03;1.57;;;21.70;99.90;;;;;;4996042;28;20674;-66
2022/06/27 01:11:52;;;;;;;2.83;1.70;;;21.60;99.90;;;;;;4999680;28;20214;-66
2022/06/27 01:14:19;;;;;;;2.17;1.50;;;21.50;99.90;;;;;;4998362;28;20294;-66
2022/06/27 01:16:45;;;;;;;3.03;1.70;;;21.50;99.90;;;;;;5001088;28;20213;-66
2022/06/27 01:19:13;;;;;;;1.87;1.60;;;21.50;99.90;;;;;;4997933;28;20490;-66
2022/06/27 01:21:45;;;;;;;2.60;1.80;;;21.40;99.90;;;;;;4998145;28;20441;-66
2022/06/27 01:24:10;;;;;;;2.50;1.60;;;21.40;99.90;;;;;;4996351;28;20447;-66
2022/06/27 01:26:36;;;;;;;1.80;1.30;;;21.40;99.90;;;;;;4994375;28;20505;-66
2022/06/27 01:29:03;;;;;;;5.67;1.80;;;21.30;99.90;;;;;;4997414;28;20885;-65
2022/06/27 01:31:29;;;;;;;3.50;1.60;;;21.40;99.90;;;;;;5000801;28;20197;-65
2022/06/27 01:33:55;;;;;;;2.23;1.50;;;21.40;99.90;;;;;;4996451;28;20536;-66
2022/06/27 01:39:05;;;;;;;2.50;1.60;;;21.30;99.90;;;;;;4997504;28;20188;-66
2022/06/27 01:41:30;;;;;;;2.17;1.57;;;21.30;99.90;;;;;;5000155;28;20799;-65
2022/06/27 01:43:56;;;;;;;1.93;1.47;;;21.30;99.90;;;;;;5000358;28;20192;-66
2022/06/27 01:46:22;;;;;;;4.13;1.80;;;21.30;99.90;;;;;;4998111;28;20189;-65
2022/06/27 01:48:47;;;;;;;2.40;1.50;;;21.20;99.90;;;;;;4997622;28;20185;-66
2022/06/27 01:51:14;;;;;;;3.77;1.80;;;21.20;99.90;;;;;;5000023;28;20223;-65
2022/06/27 01:53:39;;;;;;;3.40;1.83;;;21.00;99.90;;;;;;5000731;28;20825;-66
2022/06/27 01:56:06;;;;;;;3.70;1.90;;;21.10;99.90;;;;;;4983808;28;20432;-65
2022/06/27 01:58:33;;;;;;;2.90;1.60;;;20.90;99.90;;;;;;5000822;28;20173;-66
2022/06/27 02:00:58;;;;;;;2.87;1.60;;;20.80;99.90;;;;;;4997182;28;20478;-66
2022/06/27 02:03:24;;;;;;;4.07;1.67;;;20.90;99.90;;;;;;4999764;28;20444;-66
2022/06/27 02:05:53;;;;;;;1.80;1.40;;;20.80;99.90;;;;;;4999955;28;20181;-66
2022/06/27 02:08:21;;;;;;;2.30;1.67;;;20.80;99.90;;;;;;4995582;28;20207;-66
2022/06/27 02:10:47;;;;;;;2.37;1.70;;;20.90;99.90;;;;;;4998790;28;20480;-66
2022/06/27 02:13:13;;;;;;;4.40;1.70;;;20.90;99.90;;;;;;4999328;28;20526;-66
2022/06/27 02:16:06;;;;;;;2.07;1.40;;;20.90;99.90;;;;;;4995512;28;20574;-66
2022/06/27 02:18:32;;;;;;;1.87;1.40;;;21.10;99.90;;;;;;5001475;28;20455;-66
2022/06/27 02:20:59;;;;;;;2.83;1.80;;;21.10;99.90;;;;;;4995834;28;20463;-66
2022/06/27 02:23:24;;;;;;;2.90;1.70;;;21.10;99.90;;;;;;4994033;28;20445;-66
2022/06/27 02:25:51;;;;;;;4.73;1.83;;;21.10;99.90;;;;;;4995890;28;20432;-65
2022/06/27 02:28:19;;;;;;;2.57;1.60;;;21.10;99.90;;;;;;4997615;28;20185;-65
2022/06/27 02:30:45;;;;;;;2.23;1.97;;;20.90;99.90;;;;;;4999345;28;20493;-65
2022/06/27 02:33:11;;;;;;;2.90;2.20;;;20.80;99.90;;;;;;5000699;28;20435;-66
2022/06/27 02:35:39;;;;;;;2.30;1.73;;;20.90;99.90;;;;;;4980269;28;20474;-65
2022/06/27 02:38:09;;;;;;;3.80;1.80;;;20.90;99.90;;;;;;4993712;28;21135;-65
2022/06/27 02:40:36;;;;;;;2.37;1.80;;;20.90;99.90;;;;;;4996803;28;20464;-66
2022/06/27 02:43:03;;;;;;;4.30;1.90;;;20.80;99.90;;;;;;4981095;28;20445;-66
2022/06/27 02:45:29;;;;;;;2.50;1.70;;;20.80;99.90;;;;;;4996251;28;20444;-66
2022/06/27 02:47:57;;;;;;;5.50;2.10;;;20.70;99.90;;;;;;4995296;28;20447;-66
2022/06/27 02:50:26;;;;;;;2.23;1.50;;;20.80;99.90;;;;;;4995055;28;20768;-66
2022/06/27 02:52:56;;;;;;;2.87;2.00;;;20.90;99.90;;;;;;4996605;28;20538;-66
2022/06/27 02:55:27;;;;;;;3.60;1.87;;;20.70;99.90;;;;;;4975638;28;21325;-65
2022/06/27 02:58:00;;;;;;;2.90;1.67;;;20.60;99.90;;;;;;4996632;28;20424;-65
2022/06/27 03:00:32;;;;;;;2.80;1.80;;;20.60;99.90;;;;;;4994329;28;20470;-66
2022/06/27 03:02:59;;;;;;;4.80;1.83;;;20.70;99.90;;;;;;4984040;28;20531;-65
2022/06/27 03:05:24;;;;;;;2.20;1.70;;;20.90;99.90;;;;;;4998029;28;20440;-66
2022/06/27 03:07:50;;;;;;;3.83;1.80;;;20.80;99.90;;;;;;4995098;28;20428;-65
2022/06/27 03:10:16;;;;;;;2.97;1.80;;;20.70;99.90;;;;;;4990527;28;20280;-65
2022/06/27 03:12:42;;;;;;;3.10;2.03;;;20.70;99.90;;;;;;4995890;28;21144;-65
2022/06/27 03:15:09;;;;;;;4.50;2.10;;;20.90;99.90;;;;;;4994579;28;20270;-65
2022/06/27 03:17:35;;;;;;;2.00;1.60;;;20.90;99.90;;;;;;4996308;28;20209;-66
2022/06/27 03:20:01;;;;;;;2.67;1.80;;;20.80;99.90;;;;;;4996624;28;20448;-65
2022/06/27 03:22:26;;;;;;;2.00;1.67;;;20.80;99.90;;;;;;4991557;28;20576;-65
2022/06/27 03:24:52;;;;;;;8.37;2.07;;;20.80;99.90;;;;;;4993447;28;20189;-65
2022/06/27 03:27:18;;;;;;;2.67;1.77;;;20.70;99.90;;;;;;4993445;28;20345;-65
2022/06/27 03:29:43;;;;;;;3.60;1.80;;;20.60;99.90;;;;;;4993895;28;20209;-65
2022/06/27 03:32:09;;;;;;;4.57;2.00;;;20.60;99.90;;;;;;4996781;28;20185;-65
2022/06/27 03:34:35;;;;;;;4.23;2.17;;;20.50;99.90;;;;;;4997217;28;20208;-62
2022/06/27 03:37:00;;;;;;;3.20;1.67;;;20.50;99.90;;;;;;5002627;28;20436;-62
2022/06/27 03:39:26;;;;;;;2.43;2.10;;;20.50;99.90;;;;;;4996849;28;20556;-62
2022/06/27 03:41:52;;;;;;;3.50;1.87;;;20.50;99.90;;;;;;4995402;28;20188;-63
2022/06/27 03:44:18;;;;;;;5.00;2.13;;;20.50;99.90;;;;;;5000028;28;20191;-62
2022/06/27 03:46:43;;;;;;;2.90;2.00;;;20.40;99.90;;;;;;4998815;28;20633;-62
2022/06/27 03:51:54;;;;;;;3.10;1.90;;;20.20;99.90;;;;;;4997114;28;20482;-64
2022/06/27 03:54:20;;;;;;;2.50;1.87;;;20.30;99.90;;;;;;4983135;28;20471;-64
2022/06/27 03:56:46;;;;;;;1.90;1.60;;;20.10;99.90;;;;;;4994851;28;20435;-62
2022/06/27 03:59:13;;;;;;;2.70;1.93;;;20.30;99.90;;;;;;4992397;28;20177;-62
2022/06/27 04:01:39;;;;;;;2.90;1.80;;;20.30;99.90;;;;;;4998832;28;20432;-63
2022/06/27 04:04:05;;;;;;;2.10;1.63;;;20.30;99.90;;;;;;4984497;28;20464;-63
2022/06/27 04:06:31;;;;;;;2.60;1.90;;;20.30;99.90;;;;;;4997014;28;20730;-64
2022/06/27 04:08:58;;;;;;;2.57;1.67;;;20.30;99.90;;;;;;5000454;28;20428;-63
2022/06/27 04:11:24;;;;;;;3.40;2.20;;;20.30;99.90;;;;;;4998680;28;20436;-63
2022/06/27 04:13:49;;;;;;;4.00;2.20;;;20.30;99.90;;;;;;5000566;28;20463;-66
2022/06/27 04:16:15;;;;;;;4.13;3.40;;;20.30;99.90;;;;;;4993913;28;20189;-66
2022/06/27 04:18:40;;;;;;;3.20;2.07;;;20.40;99.90;;;;;;4996560;28;20181;-66
2022/06/27 04:21:06;;;;;;;2.87;2.20;;;20.50;99.90;;;;;;4997590;28;20201;-66
2022/06/27 04:23:32;;;;;;;3.93;2.90;;;20.40;99.90;;;;;;4996190;28;20185;-67
2022/06/27 04:25:58;;;;;;;5.53;2.60;;;20.30;99.90;;;;;;5003028;28;20165;-68
2022/06/27 04:28:24;;;;;;;4.27;2.40;;;20.30;99.90;;;;;;5002627;28;20478;-68
2022/06/27 04:30:51;;;;;;;4.60;3.30;;;20.30;99.90;;;;;;4997224;28;20224;-68
2022/06/27 04:33:16;;;;;;;3.80;3.10;;;20.30;99.90;;;;;;5000674;28;20499;-67
2022/06/27 04:35:46;;;;;;;3.73;3.30;;;20.40;99.90;;;;;;4997553;28;20467;-66
2022/06/27 04:38:12;;;;;;;3.60;3.17;;;20.30;99.90;;;;;;5003006;28;20185;-66
2022/06/27 04:40:41;;;;;;;4.37;3.10;;;20.10;99.90;;;;;;5000257;28;20475;-67
2022/06/27 04:43:07;;;;;;;4.90;3.47;;;20.10;99.90;;;;;;5002637;28;20440;-67
2022/06/27 04:45:33;;;;;;;5.33;3.80;;;20.10;99.90;;;;;;4987978;28;20581;-67
2022/06/27 04:48:00;;;;;;;7.33;3.70;;;20.20;99.90;;;;;;5001457;28;20948;-67
2022/06/27 04:50:26;;;;;;;6.00;4.13;;;20.20;99.90;;;;;;5001094;28;20930;-68
2022/06/27 04:52:52;;;;;;;5.83;3.40;;;20.20;99.90;;;;;;4998955;28;20437;-68
2022/06/27 04:55:18;;;;;;;8.33;5.80;;;20.30;99.90;;;;;;5003264;28;20637;-67
2022/06/27 04:57:46;;;;;;;5.93;5.00;;;20.30;99.90;;;;;;5003522;28;20196;-67
2022/06/27 05:00:14;;;;;;;8.43;3.53;;;20.30;99.90;;;;;;5004503;28;20461;-68
2022/06/27 05:02:40;;;;;;;4.03;3.63;;;20.30;99.90;;;;;;5000171;28;20427;-66
2022/06/27 05:05:07;;;;;;;4.43;3.73;;;20.30;99.90;;;;;;4998627;28;20447;-66
2022/06/27 05:07:32;;;;;;;6.13;3.73;;;20.30;99.90;;;;;;5002487;28;20440;-67
2022/06/27 05:09:58;;;;;;;6.87;3.80;;;20.30;99.90;;;;;;4998170;28;20975;-66
2022/06/27 05:12:25;;;;;;;3.70;3.30;;;20.40;99.90;;;;;;5000099;28;20493;-67
2022/06/27 05:14:51;;;;;;;4.10;3.10;;;20.50;99.90;;;;;;4999748;28;20646;-66
2022/06/27 05:17:17;;;;;;;3.40;3.10;;;20.50;99.90;;;;;;4999047;28;20436;-66
2022/06/27 05:19:44;;;;;;;5.10;3.80;;;20.60;99.90;;;;;;4999482;28;20447;-66
2022/06/27 05:22:10;;;;;;;4.80;3.70;;;20.60;99.90;;;;;;5001107;28;20173;-67
2022/06/27 05:24:36;;;;;;;4.70;3.67;;;20.60;99.90;;;;;;4996032;28;20869;-66
2022/06/27 05:27:02;;;;;;;4.90;3.37;;;20.60;99.90;;;;;;4989948;28;20503;-67
2022/06/27 05:29:28;;;;;;;4.63;3.93;;;20.70;99.90;;;;;;4999929;28;21040;-67
2022/06/27 05:31:54;;;;;;;6.43;3.73;;;20.60;99.90;;;;;;5001018;28;20197;-66
2022/06/27 05:34:20;;;;;;;6.50;3.80;;;20.60;99.90;;;;;;5003391;28;20208;-67
2022/06/27 05:36:46;;;;;;;3.50;3.20;;;20.60;99.90;;;;;;5000909;28;20428;-67
2022/06/27 05:39:12;;;;;;;8.13;3.83;;;20.60;99.90;;;;;;5000827;28;20427;-66
2022/06/27 05:41:38;;;;;;;5.50;3.60;;;20.60;99.90;;;;;;4999887;28;20755;-65
2022/06/27 05:44:04;;;;;;;3.93;3.53;;;20.60;99.90;;;;;;5003499;28;20639;-66
2022/06/27 05:46:30;;;;;;;6.70;3.13;;;20.60;99.90;;;;;;4987818;28;20837;-66
2022/06/27 05:48:56;;;;;;;4.07;3.40;;;20.60;99.90;;;;;;5000785;28;20432;-67
2022/06/27 05:51:22;;;;;;;7.13;4.13;;;20.60;99.90;;;;;;4985237;28;20720;-66
2022/06/27 05:53:48;;;;;;;4.30;3.90;;;20.60;99.90;;;;;;4987326;28;20192;-66
2022/06/27 05:56:14;;;;;;;4.00;3.60;;;20.60;99.90;;;;;;5002116;28;20199;-66
2022/06/27 05:58:41;;;;;;;5.03;3.77;;;20.50;99.90;;;;;;4998725;28;20428;-69
2022/06/27 06:01:08;;;;;;;5.60;4.07;;;20.50;99.90;;;;;;4999714;28;20483;-66
2022/06/27 06:03:35;;;;;;;5.80;4.87;;;20.50;99.90;;;;;;4997825;28;20421;-66
2022/06/27 06:06:00;;;;;;;5.57;4.57;;;20.50;99.90;;;;;;5001977;28;20412;-66
2022/06/27 06:08:26;;;;;;;5.17;4.67;;;20.60;99.90;;;;;;5002642;28;20503;-66
2022/06/27 06:10:52;;;;;;;6.73;5.00;;;20.60;99.90;;;;;;4986576;28;20822;-66
2022/06/27 06:13:18;;;;;;;5.93;4.23;;;20.50;99.90;;;;;;4997557;28;20622;-66
2022/06/27 06:15:45;;;;;;;5.13;4.63;;;20.70;99.90;;;;;;4987641;28;20213;-68
2022/06/27 06:18:11;;;;;;;5.33;4.80;;;20.70;99.90;;;;;;5000720;28;20432;-68
2022/06/27 06:20:37;;;;;;;5.70;4.60;;;20.80;99.90;;;;;;4980907;28;20445;-66
2022/06/27 06:23:02;;;;;;;5.57;4.80;;;20.80;99.90;;;;;;4985731;28;20185;-66
2022/06/27 06:25:29;;;;;;;10.40;7.83;;;20.70;99.90;;;;;;4999723;28;20272;-66
2022/06/27 06:28:04;;;;;;;5.40;4.27;;;20.80;99.90;;;;;;4998858;28;20432;-68
2022/06/27 06:30:31;;;;;;;5.80;4.30;;;20.90;99.90;;;;;;4997714;28;20900;-67
2022/06/27 06:33:02;;;;;;;5.70;5.07;;;20.80;99.90;;;;;;5002676;28;20455;-66
2022/06/27 06:35:27;;;;;;;5.30;4.50;;;20.80;99.90;;;;;;4999731;28;20464;-66
2022/06/27 06:37:53;;;;;;;5.47;4.97;;;20.80;99.90;;;;;;5000919;28;20424;-66
2022/06/27 06:40:19;;;;;;;6.90;5.47;;;20.90;99.90;;;;;;4994707;28;20472;-67
2022/06/27 06:42:45;;;;;;;6.50;4.20;;;20.90;99.90;;;;;;4997178;28;20424;-67
2022/06/27 06:45:11;;;;;;;8.60;5.43;;;20.90;99.90;;;;;;5002775;28;20181;-66
2022/06/27 06:47:48;;;;;;;6.40;5.13;;;20.90;99.90;;;;;;4996380;28;20435;-68
2022/06/27 06:50:16;;;;;;;4.83;4.40;;;20.90;99.90;;;;;;4998043;28;20466;-66
2022/06/27 06:52:42;;;;;;;5.27;4.50;;;21.00;99.90;;;;;;5005157;28;20428;-66
2022/06/27 06:55:12;;;;;;;5.13;4.17;;;20.90;99.90;;;;;;4985652;28;20961;-66
2022/06/27 06:57:38;;;;;;;5.10;4.03;;;20.90;99.90;;;;;;4999033;28;20869;-66
2022/06/27 07:00:06;;;;;;;4.83;4.17;;;20.80;99.90;;;;;;5002101;28;20823;-66
2022/06/27 07:02:32;;;;;;;4.20;3.80;;;20.90;99.90;;;;;;4998993;28;20425;-66
2022/06/27 07:04:58;;;;;;;4.10;3.80;;;20.80;99.90;;;;;;4988313;28;20462;-67
2022/06/27 07:07:25;;;;;;;6.00;4.30;;;20.70;99.90;;;;;;4981889;28;20520;-66
2022/06/27 07:09:52;;;;;;;5.50;4.53;;;20.70;99.90;;;;;;4985701;28;20598;-67
2022/06/27 07:12:18;;;;;;;6.80;4.67;;;20.60;99.90;;;;;;5001338;28;20427;-66
2022/06/27 07:14:45;;;;;;;6.47;5.13;;;20.70;99.90;;;;;;5003026;28;20468;-67
2022/06/27 07:17:11;;;;;;;6.03;5.27;;;20.60;99.90;;;;;;4998484;28;20446;-66
2022/06/27 07:19:38;;;;;;;5.90;5.30;;;20.70;99.90;;;;;;4999733;28;20484;-67
2022/06/27 07:22:06;;;;;;;6.30;5.70;;;20.90;99.90;;;;;;4985005;28;20456;-68
2022/06/27 07:24:32;;;;;;;5.70;5.07;;;20.80;99.90;;;;;;4998192;28;20437;-66
2022/06/27 07:26:59;;;;;;;6.03;5.20;;;20.90;99.90;;;;;;4997971;28;20482;-68
2022/06/27 07:29:26;;;;;;;6.50;5.33;;;21.00;99.90;;;;;;4998715;28;20251;-68
2022/06/27 07:31:53;;;;;;;7.33;5.80;;;21.00;99.90;;;;;;4998182;28;20436;-67
2022/06/27 07:34:21;;;;;;;7.73;5.30;;;21.00;99.90;;;;;;4978888;28;20464;-67
2022/06/27 07:36:47;;;;;;;5.90;5.40;;;21.20;99.90;;;;;;4997901;28;20437;-67
2022/06/27 07:39:13;;;;;;;8.93;6.60;;;21.20;99.90;;;;;;5001514;28;20453;-68
2022/06/27 07:41:39;;;;;;;9.27;6.80;;;21.20;99.90;;;;;;5001269;28;20923;-67
2022/06/27 07:44:05;;;;;;;9.23;6.50;;;21.20;99.90;;;;;;4998241;28;20423;-67
2022/06/27 07:46:32;;;;;;;6.43;5.83;;;21.20;99.90;;;;;;4996631;28;20257;-67
2022/06/27 07:48:58;;;;;;;7.37;6.60;;;21.20;99.90;;;;;;4999318;28;20511;-67
2022/06/27 07:51:23;;;;;;;11.10;6.57;;;21.10;99.90;;;;;;4986052;28;20911;-67
2022/06/27 07:53:51;;;;;;;8.10;6.87;;;21.00;99.90;;;;;;4999588;28;20181;-67
2022/06/27 07:56:18;;;;;;;9.07;7.73;;;21.10;99.90;;;;;;4997402;28;20174;-67
2022/06/27 07:58:44;;;;;;;7.47;6.67;;;21.10;99.90;;;;;;4998898;28;20760;-67
2022/06/27 08:01:14;;;;;;;8.23;7.43;;;21.20;99.90;;;;;;4983440;28;20505;-67
2022/06/27 08:03:40;;;;;;;10.37;8.57;;;21.10;99.90;;;;;;4996994;28;20256;-66
2022/06/27 08:06:13;;;;;;;9.80;8.57;;;21.10;99.90;;;;;;4994292;28;20474;-68
2022/06/27 08:08:41;;;;;;;12.33;7.60;;;21.20;99.90;;;;;;4997681;28;20475;-66
2022/06/27 08:11:10;;;;;;;8.77;7.97;;;21.20;99.90;;;;;;4985948;28;20453;-67
2022/06/27 08:13:37;;;;;;;8.70;7.67;;;21.10;99.90;;;;;;4973850;28;20564;-67
2022/06/27 08:16:05;;;;;;;9.10;8.20;;;21.10;99.90;;;;;;4982303;28;21025;-66
2022/06/27 08:18:31;;;;;;;8.97;8.07;;;21.10;99.90;;;;;;4999192;28;20443;-67
2022/06/27 08:20:58;;;;;;;9.13;8.23;;;21.10;99.90;;;;;;4997299;28;20468;-66
2022/06/27 08:23:24;;;;;;;9.67;8.67;;;21.20;99.90;;;;;;5000288;28;20216;-66
2022/06/27 08:25:50;;;;;;;10.50;8.10;;;21.30;99.90;;;;;;4998865;28;20486;-66
2022/06/27 08:28:16;;;;;;;9.60;8.70;;;21.30;99.90;;;;;;4992930;28;20437;-66
2022/06/27 08:30:43;;;;;;;8.93;7.70;;;21.30;99.90;;;;;;4999339;28;20264;-66
2022/06/27 08:33:10;;;;;;;10.87;8.67;;;21.30;99.90;;;;;;4984677;28;20444;-67
2022/06/27 08:35:36;;;;;;;9.67;8.77;;;21.40;99.90;;;;;;5000845;28;20901;-66
2022/06/27 08:38:02;;;;;;;12.03;9.17;;;21.40;99.90;;;;;;4999313;28;20421;-66
2022/06/27 08:40:28;;;;;;;9.60;8.13;;;21.40;99.90;;;;;;4999107;28;20710;-66
2022/06/27 08:42:57;;;;;;;9.90;8.93;;;21.30;99.90;;;;;;4998075;28;20425;-67
2022/06/27 08:45:25;;;;;;;9.47;7.97;;;21.20;99.90;;;;;;4999927;28;20701;-66
2022/06/27 08:47:54;;;;;;;9.23;8.33;;;21.20;99.90;;;;;;4982968;28;20952;-67
2022/06/27 08:50:22;;;;;;;11.70;8.90;;;21.20;99.90;;;;;;5002105;28;20533;-67
2022/06/27 08:52:50;;;;;;;9.40;8.60;;;21.20;99.90;;;;;;5001528;28;20468;-66
2022/06/27 08:55:16;;;;;;;9.40;7.67;;;21.20;99.90;;;;;;4995142;28;20869;-66
2022/06/27 08:57:42;;;;;;;10.27;8.93;;;21.30;99.90;;;;;;4994917;28;20503;-66
2022/06/27 09:00:11;;;;;;;8.90;8.00;;;21.40;99.90;;;;;;4995727;28;20752;-67
2022/06/27 09:02:42;;;;;;;9.27;8.30;;;21.50;99.90;;;;;;4992749;28;20428;-66
2022/06/27 09:05:22;;;;;;;9.20;7.97;;;21.40;99.90;;;;;;4998906;28;20926;-66
2022/06/27 09:08:02;;;;;;;8.20;7.30;;;21.50;99.90;;;;;;4996888;28;20423;-67
2022/06/27 09:10:42;;;;;;;8.57;7.73;;;21.50;99.90;;;;;;4996558;28;20507;-69
2022/06/27 09:13:19;;;;;;;9.30;8.43;;;21.50;99.90;;;;;;5003405;28;20435;-67
2022/06/27 09:16:00;;;;;;;9.07;8.27;;;21.50;99.90;;;;;;5000778;28;20460;-67
2022/06/27 09:18:27;;;;;;;7.97;7.27;;;21.50;99.90;;;;;;5006060;28;20836;-67
2022/06/27 09:21:01;;;;;;;7.17;6.47;;;21.40;99.90;;;;;;4999478;28;20454;-67
2022/06/27 09:23:29;;;;;;;9.13;8.27;;;21.30;99.90;;;;;;5001793;28;20455;-68
2022/06/27 09:26:04;;;;;;;8.30;7.50;;;21.30;99.90;;;;;;5005950;28;20577;-69
2022/06/27 09:29:01;;;;;;;8.40;7.60;;;21.40;99.90;;;;;;4987290;28;21050;-68
2022/06/27 09:31:30;;;;;;;7.50;6.80;;;21.30;99.90;;;;;;5000039;28;20435;-67
2022/06/27 09:34:14;;;;;;;8.40;7.10;;;21.40;99.90;;;;;;4986011;28;20539;-67
2022/06/27 09:36:47;;;;;;;7.50;6.80;;;21.50;99.90;;;;;;4999946;28;20471;-68
2022/06/27 09:39:29;;;;;;;10.23;8.10;;;21.50;99.90;;;;;;4998155;28;20909;-67
2022/06/27 09:42:04;;;;;;;9.63;8.63;;;21.70;99.90;;;;;;4999801;28;20440;-67
2022/06/27 09:44:35;;;;;;;9.33;8.43;;;21.70;99.90;;;;;;4997681;28;20522;-67
2022/06/27 09:47:17;;;;;;;8.27;7.37;;;21.70;99.90;;;;;;5000352;28;20462;-67
2022/06/27 09:49:46;;;;;;;8.70;7.90;;;21.80;99.90;;;;;;5000939;28;20468;-67
2022/06/27 09:52:14;;;;;;;8.10;7.40;;;21.90;99.90;;;;;;5002151;28;20467;-68
2022/06/27 09:54:42;;;;;;;9.63;8.73;;;21.90;99.90;;;;;;5001458;28;20791;-67
2022/06/27 09:57:09;;;;;;;12.03;7.80;;;22.10;99.90;;;;;;4999075;28;20871;-67
2022/06/27 09:59:36;;;;;;;11.23;7.80;;;22.10;99.90;;;;;;4983642;28;20640;-66
2022/06/27 10:02:04;;;;;;;8.83;8.03;;;22.10;99.90;;;;;;5000558;28;20829;-66
2022/06/27 10:04:31;;;;;;;10.07;7.10;;;22.20;99.90;;;;;;4998814;28;20425;-66
2022/06/27 10:07:00;;;;;;;7.80;7.07;;;22.10;99.90;;;;;;4999721;28;20922;-67
2022/06/27 10:09:29;;;;;;;9.13;6.93;;;22.00;99.90;;;;;;4998685;28;20459;-68
2022/06/27 10:12:21;;;;;;;10.50;7.70;;;21.90;99.90;;;;;;5000196;28;20428;-67
2022/06/27 10:15:10;;;;;;;7.33;6.63;;;22.00;99.90;;;;;;4999580;28;20607;-67
2022/06/27 10:17:38;;;;;;;8.70;7.90;;;21.80;99.90;;;;;;5000932;28;20594;-67
2022/06/27 10:20:21;;;;;;;9.00;8.10;;;21.70;99.90;;;;;;4999093;28;20456;-67
2022/06/27 10:23:18;;;;;;;8.17;7.37;;;21.60;99.90;;;;;;5003479;28;20439;-68
2022/06/27 10:25:45;;;;;;;9.30;8.40;;;21.70;99.90;;;;;;4991429;28;20450;-67
2022/06/27 10:28:16;;;;;;;9.87;8.90;;;21.90;99.90;;;;;;4998625;28;20435;-67
2022/06/27 10:30:46;;;;;;;9.97;8.30;;;22.00;99.90;;;;;;5001593;28;20899;-67
2022/06/27 10:33:24;;;;;;;10.30;8.77;;;22.10;99.90;;;;;;5000917;28;20447;-67
2022/06/27 10:35:59;;;;;;;10.70;9.60;;;22.40;99.90;;;;;;5004127;28;20474;-67
2022/06/27 10:38:25;;;;;;;13.73;10.40;;;22.40;99.90;;;;;;4998608;28;20426;-69
2022/06/27 10:40:53;;;;;;;10.77;9.67;;;22.50;99.90;;;;;;4998742;28;20447;-67
2022/06/27 10:43:40;;;;;;;10.20;9.23;;;22.50;99.90;;;;;;5000993;28;22279;-67
2022/06/27 10:46:08;;;;;;;8.97;8.10;;;22.40;99.90;;;;;;4998058;28;20436;-67
2022/06/27 10:48:36;;;;;;;10.80;9.70;;;22.40;99.90;;;;;;4997128;28;20438;-69
2022/06/27 10:51:30;;;;;;;9.67;8.67;;;22.50;99.90;;;;;;4999831;28;20465;-68
2022/06/27 10:54:05;;;;;;;10.17;8.80;;;22.30;99.90;;;;;;4980850;28;20486;-66
2022/06/27 10:56:33;;;;;;;12.37;8.50;;;22.30;99.90;;;;;;4984966;28;20435;-69
2022/06/27 10:59:01;;;;;;;11.97;8.83;;;22.40;99.90;;;;;;4994668;28;20429;-67
2022/06/27 11:01:28;;;;;;;11.23;10.13;;;22.20;99.90;;;;;;4980176;28;21016;-68
2022/06/27 11:03:54;;;;;;;11.23;7.83;;;22.30;99.90;;;;;;5001829;28;20576;-67
2022/06/27 11:06:23;;;;;;;8.87;7.97;;;22.10;99.90;;;;;;4999865;28;20443;-67
2022/06/27 11:08:51;;;;;;;10.97;8.60;;;22.10;99.90;;;;;;4999904;28;20428;-67
2022/06/27 11:11:22;;;;;;;10.20;9.13;;;22.20;99.90;;;;;;4984601;28;20452;-69
2022/06/27 11:13:53;;;;;;;11.77;8.60;;;22.00;99.90;;;;;;4999934;28;20444;-67
2022/06/27 11:16:21;;;;;;;9.13;7.83;;;21.80;99.90;;;;;;4998177;28;20951;-67
2022/06/27 11:18:59;;;;;;;10.30;8.23;;;21.80;99.90;;;;;;4997814;28;20457;-67
2022/06/27 11:21:35;;;;;;;8.50;7.70;;;21.80;99.90;;;;;;4995798;28;20421;-68
2022/06/27 11:24:03;;;;;;;9.60;7.60;;;22.00;99.90;;;;;;5000401;28;20450;-69
2022/06/27 11:26:36;;;;;;;9.73;8.73;;;22.10;99.90;;;;;;4999416;28;20447;-67
2022/06/27 11:32:06;;;;;;;8.70;7.00;;;22.10;99.90;;;;;;4998466;28;20435;-68
2022/06/27 11:34:34;;;;;;;7.10;6.40;;;22.20;99.90;;;;;;4997522;28;20460;-67
2022/06/27 11:37:03;;;;;;;7.07;6.37;;;22.30;99.90;;;;;;4998667;28;20604;-67
2022/06/27 11:39:33;;;;;;;7.43;6.70;;;22.60;99.90;;;;;;4998203;28;20546;-68
2022/06/27 11:42:01;;;;;;;6.93;5.63;;;23.00;99.90;;;;;;5000370;28;20781;-67
2022/06/27 11:44:28;;;;;;;6.20;5.20;;;23.20;99.90;;;;;;4998352;28;20468;-69
2022/06/27 11:47:04;;;;;;;5.70;5.00;;;23.30;99.90;;;;;;4998106;28;20442;-68
2022/06/27 11:49:38;;;;;;;5.57;4.30;;;23.40;99.90;;;;;;4996017;28;20452;-67
2022/06/27 11:52:11;;;;;;;4.73;4.20;;;23.40;99.90;;;;;;4999990;28;20428;-66
2022/06/27 11:54:45;;;;;;;5.63;4.17;;;23.30;99.90;;;;;;4996213;28;20456;-66
2022/06/27 11:57:45;;;;;;;5.20;4.67;;;23.60;99.90;;;;;;4999305;28;20453;-67
2022/06/27 12:00:18;;;;;;;4.60;3.80;;;23.60;99.90;;;;;;4947212;28;21000;-67
2022/06/27 12:02:48;;;;;;;4.20;3.80;;;23.70;99.90;;;;;;5001294;28;20436;-68
2022/06/27 12:05:18;;;;;;;4.53;4.17;;;23.90;99.90;;;;;;4999494;28;20424;-67
2022/06/27 12:08:04;;;;;;;5.13;4.67;;;24.30;99.90;;;;;;4985811;28;20436;-67
2022/06/27 12:10:36;;;;;;;4.83;3.90;;;24.50;99.90;;;;;;4980545;28;21097;-67
2022/06/27 12:13:07;;;;;;;7.27;4.60;;;25.60;99.90;;;;;;4988007;28;20432;-67
2022/06/27 12:15:34;;;;;;;4.37;3.90;;;25.90;99.90;;;;;;5000529;28;20510;-67
2022/06/27 12:18:01;;;;;;;4.50;4.10;;;25.80;99.90;;;;;;4996675;28;20439;-67
2022/06/27 12:20:29;;;;;;;6.10;4.37;;;25.30;99.90;;;;;;4984424;28;20440;-66
2022/06/27 12:22:55;;;;;;;4.53;4.13;;;25.10;99.90;;;;;;5000364;28;20419;-67
2022/06/27 12:25:21;;;;;;;4.73;4.27;;;25.20;99.90;;;;;;5002144;28;20428;-67
2022/06/27 12:27:47;;;;;;;8.10;4.60;;;25.00;99.90;;;;;;4998849;28;20189;-67
2022/06/27 12:30:13;;;;;;;6.33;3.93;;;24.90;99.90;;;;;;4999421;28;20460;-67
2022/06/27 12:32:40;;;;;;;4.83;4.00;;;24.60;99.90;;;;;;4998486;28;21006;-67
2022/06/27 12:35:06;;;;;;;5.20;4.17;;;24.50;99.90;;;;;;4998830;28;20214;-67
2022/06/27 12:37:34;;;;;;;4.17;3.77;;;24.40;99.90;;;;;;4995938;28;20819;-67
2022/06/27 12:40:00;;;;;;;6.17;4.10;;;24.20;99.90;;;;;;4985721;28;20464;-67
2022/06/27 12:42:26;;;;;;;4.53;3.83;;;24.10;99.90;;;;;;4995652;28;20775;-67
2022/06/27 12:44:52;;;;;;;3.90;3.60;;;24.10;99.90;;;;;;5001543;28;20425;-66
2022/06/27 12:47:17;;;;;;;3.83;3.53;;;23.90;99.90;;;;;;5000330;28;20586;-69
2022/06/27 12:49:43;;;;;;;3.60;3.30;;;23.80;99.90;;;;;;5002092;28;20222;-67
2022/06/27 12:52:09;;;;;;;4.00;3.60;;;23.70;99.90;;;;;;5003590;28;20669;-67
2022/06/27 12:54:34;;;;;;;4.27;3.97;;;23.60;99.90;;;;;;5002347;28;20653;-67
2022/06/27 12:57:01;;;;;;;4.03;3.70;;;23.50;99.90;;;;;;5002089;28;20231;-68
2022/06/27 12:59:27;;;;;;;3.70;3.40;;;23.50;99.90;;;;;;4985688;28;20459;-67